Time;durP1;ratioP1;P1;durP2;ratioP2;P2;SDS_P1;SDS_P2;PMS_P1;PMS_P2;Temp;Humidity;BMP_temperature;BMP_pressure;BME280_temperature;BME280_humidity;BME280_pressure;Samples;Min_cycle;Max_cycle;Signal;HPM_P1;HPM_P2
2022/08/25 00:01:29;;;;;;;25.73;6.32;;;;;;;27.57;63.30;100807.06;5030293;28;20040;-82
2022/08/25 00:03:56;;;;;;;23.10;6.13;;;;;;;27.54;63.84;100795.53;5050808;28;20406;-83
2022/08/25 00:06:21;;;;;;;30.58;7.00;;;;;;;27.54;63.94;100788.34;5050697;28;20059;-84
2022/08/25 00:08:47;;;;;;;40.40;7.13;;;;;;;27.60;63.73;100785.56;5051394;28;20064;-85
2022/08/25 00:11:16;;;;;;;30.70;7.05;;;;;;;27.50;63.85;100766.97;5043226;28;20025;-84
2022/08/25 00:13:44;;;;;;;31.15;6.78;;;;;;;27.48;63.58;100767.00;5050881;28;20017;-85
2022/08/25 00:16:11;;;;;;;32.45;6.72;;;;;;;27.54;63.54;100780.31;5030750;28;20025;-85
2022/08/25 00:18:38;;;;;;;29.65;6.30;;;;;;;27.57;63.61;100788.28;5037388;28;20567;-86
2022/08/25 00:21:04;;;;;;;26.88;6.40;;;;;;;27.43;63.72;100763.47;5049795;28;20025;-85
2022/08/25 00:23:30;;;;;;;32.10;6.57;;;;;;;27.51;63.70;100774.09;5033734;28;20025;-85
2022/08/25 00:25:56;;;;;;;30.45;6.43;;;;;;;27.57;63.36;100782.03;5031101;28;20024;-85
2022/08/25 00:28:22;;;;;;;23.10;6.20;;;;;;;27.55;63.42;100773.13;5051033;28;20081;-85
2022/08/25 00:30:48;;;;;;;27.98;6.30;;;;;;;27.52;63.54;100766.03;5033475;28;20052;-85
2022/08/25 00:33:15;;;;;;;33.00;6.75;;;;;;;27.51;63.57;100760.69;5051027;28;20478;-85
2022/08/25 00:35:41;;;;;;;27.25;6.30;;;;;;;27.50;63.25;100767.84;5032797;28;20060;-85
2022/08/25 00:38:08;;;;;;;28.75;6.68;;;;;;;27.50;63.29;100750.88;5048591;28;20025;-85
2022/08/25 00:40:35;;;;;;;35.25;6.72;;;;;;;27.45;63.20;100733.97;5032832;28;20114;-85
2022/08/25 00:43:01;;;;;;;32.92;6.82;;;;;;;27.46;63.33;100727.69;5025630;28;20022;-85
2022/08/25 00:45:27;;;;;;;34.80;7.55;;;;;;;27.41;63.43;100722.38;5048978;28;20033;-85
2022/08/25 00:47:53;;;;;;;40.15;7.72;;;;;;;27.42;63.25;100727.72;5032182;28;20037;-85
2022/08/25 00:50:21;;;;;;;36.03;6.80;;;;;;;27.37;63.08;100713.53;5033316;28;20029;-85
2022/08/25 00:52:50;;;;;;;26.83;6.35;;;;;;;27.40;63.47;100704.53;5033301;28;20633;-83
2022/08/25 00:55:45;;;;;;;28.13;6.35;;;;;;;27.44;63.29;100711.63;5033219;28;20028;-83
2022/08/25 00:58:15;;;;;;;31.75;7.22;;;;;;;27.31;62.96;100688.63;5010701;28;20049;-84
2022/08/25 01:00:48;;;;;;;32.47;6.38;;;;;;;27.42;62.97;100705.41;5049687;28;20043;-84
2022/08/25 01:03:14;;;;;;;32.85;6.93;;;;;;;27.44;63.00;100708.94;5051551;28;20535;-84
2022/08/25 01:05:41;;;;;;;31.52;6.35;;;;;;;27.40;62.83;100707.22;5049736;28;20025;-84
2022/08/25 01:08:07;;;;;;;33.05;6.15;;;;;;;27.34;62.93;100696.59;5048482;28;20025;-84
2022/08/25 01:10:36;;;;;;;29.38;6.32;;;;;;;27.28;62.87;100677.91;5049265;28;20024;-83
2022/08/25 01:13:13;;;;;;;28.70;6.10;;;;;;;27.36;62.96;100690.28;5050442;28;20497;-84
2022/08/25 01:15:39;;;;;;;35.85;6.35;;;;;;;27.35;62.77;100674.25;5050685;28;20040;-83
2022/08/25 01:18:05;;;;;;;30.33;7.13;;;;;;;27.39;62.91;100678.66;5048030;28;20039;-83
2022/08/25 01:20:31;;;;;;;30.25;6.10;;;;;;;27.38;62.80;100677.72;5050375;28;20096;-83
2022/08/25 01:22:58;;;;;;;34.08;6.05;;;;;;;27.34;62.94;100657.25;5049398;28;20105;-85
2022/08/25 01:25:58;;;;;;;30.08;6.55;;;;;;;27.38;62.75;100660.75;5048961;28;20538;-83
2022/08/25 01:28:24;;;;;;;36.35;6.47;;;;;;;27.34;62.69;100645.63;5047857;28;20025;-84
2022/08/25 01:30:51;;;;;;;32.22;6.32;;;;;;;27.29;62.62;100644.84;5050510;28;20021;-82
2022/08/25 01:33:17;;;;;;;37.10;6.82;;;;;;;27.36;62.59;100665.28;5053500;28;20522;-82
2022/08/25 01:35:43;;;;;;;35.72;6.43;;;;;;;27.38;62.47;100667.00;5047965;28;20508;-83
2022/08/25 01:38:09;;;;;;;28.25;5.97;;;;;;;27.35;62.80;100669.75;5045004;28;20032;-83
2022/08/25 01:40:35;;;;;;;31.77;6.07;;;;;;;27.40;62.43;100672.34;5048999;28;20022;-83
2022/08/25 01:43:07;;;;;;;33.78;5.93;;;;;;;27.40;62.36;100658.94;5045360;28;20111;-84
2022/08/25 01:45:34;;;;;;;31.38;5.90;;;;;;;27.37;62.71;100662.56;5046767;28;20552;-83
2022/08/25 01:48:00;;;;;;;31.40;6.03;;;;;;;27.35;62.31;100651.00;5052996;28;20029;-83
2022/08/25 01:50:26;;;;;;;31.88;6.28;;;;;;;27.38;62.52;100645.56;5039774;28;20075;-83
2022/08/25 01:53:03;;;;;;;24.58;6.22;;;;;;;27.31;62.44;100640.34;5052684;28;20039;-83
2022/08/25 01:55:29;;;;;;;21.70;5.95;;;;;;;27.26;62.45;100627.00;5051038;28;20021;-84
2022/08/25 01:57:55;;;;;;;31.75;6.15;;;;;;;27.25;62.49;100638.63;5053787;28;20041;-84
2022/08/25 02:00:22;;;;;;;26.17;6.13;;;;;;;27.35;62.79;100653.66;5053582;28;20039;-84
2022/08/25 02:02:47;;;;;;;25.50;5.93;;;;;;;27.30;62.63;100649.28;5019498;28;20035;-83
2022/08/25 02:05:15;;;;;;;32.47;6.28;;;;;;;27.31;62.90;100661.78;5052494;28;20107;-84
2022/08/25 02:07:42;;;;;;;27.63;6.18;;;;;;;27.29;62.39;100663.63;5036014;28;20060;-83
2022/08/25 02:10:10;;;;;;;23.88;5.75;;;;;;;27.34;62.63;100670.66;5035382;28;20099;-84
2022/08/25 02:12:36;;;;;;;27.70;6.43;;;;;;;27.24;62.46;100662.78;5053645;28;20040;-84
2022/08/25 02:15:07;;;;;;;23.73;6.07;;;;;;;27.32;62.47;100671.59;5014923;28;20109;-84
2022/08/25 02:17:35;;;;;;;31.80;6.07;;;;;;;27.35;62.28;100672.44;5045089;28;20036;-83
2022/08/25 02:20:02;;;;;;;25.80;5.65;;;;;;;27.35;62.53;100671.56;5053100;28;20043;-82
2022/08/25 02:22:28;;;;;;;22.63;5.85;;;;;;;27.28;62.31;100669.88;5053420;28;20075;-84
2022/08/25 02:24:54;;;;;;;25.45;5.45;;;;;;;27.26;62.37;100661.84;5052286;28;20029;-85
2022/08/25 02:27:19;;;;;;;30.67;5.90;;;;;;;27.29;62.26;100669.84;5019191;28;20036;-84
2022/08/25 02:29:46;;;;;;;31.13;6.10;;;;;;;27.23;62.52;100656.56;5051360;28;20485;-85
2022/08/25 02:32:11;;;;;;;30.17;6.40;;;;;;;27.23;62.55;100659.22;5049965;28;20028;-83
2022/08/25 02:34:40;;;;;;;27.58;5.93;;;;;;;27.18;62.50;100651.25;5042999;28;20041;-84
2022/08/25 02:37:13;;;;;;;29.42;6.00;;;;;;;27.23;62.66;100661.91;5049181;28;20048;-84
2022/08/25 02:39:39;;;;;;;22.63;5.45;;;;;;;27.24;62.26;100660.09;5052019;28;20025;-83
2022/08/25 02:42:05;;;;;;;25.73;6.63;;;;;;;27.33;61.86;100671.56;5053544;28;20621;-84
2022/08/25 02:44:30;;;;;;;29.33;5.82;;;;;;;27.34;62.02;100659.03;5053289;28;20029;-84
2022/08/25 02:46:56;;;;;;;30.27;6.05;;;;;;;27.31;62.00;100645.72;5038640;28;20104;-84
2022/08/25 02:49:23;;;;;;;27.58;5.60;;;;;;;27.28;62.21;100648.41;5051320;28;20021;-84
2022/08/25 02:51:48;;;;;;;23.20;5.40;;;;;;;27.13;61.96;100622.72;5039263;28;20033;-84
2022/08/25 02:54:15;;;;;;;22.15;5.30;;;;;;;27.19;62.05;100644.06;5016965;28;20022;-84
2022/08/25 02:56:41;;;;;;;24.08;5.50;;;;;;;27.26;61.89;100643.06;5033406;28;20469;-83
2022/08/25 02:59:08;;;;;;;31.48;6.18;;;;;;;27.22;61.88;100644.06;5046787;28;20490;-84
2022/08/25 03:01:34;;;;;;;29.15;5.88;;;;;;;27.20;61.84;100632.44;5053156;28;20049;-84
2022/08/25 03:04:00;;;;;;;22.48;4.63;;;;;;;27.22;62.09;100638.72;5052443;28;20112;-83
2022/08/25 03:06:26;;;;;;;23.55;5.30;;;;;;;27.16;61.87;100636.97;5051643;28;20028;-84
2022/08/25 03:08:52;;;;;;;25.02;5.78;;;;;;;27.29;62.00;100660.94;5050716;28;20033;-83
2022/08/25 03:11:18;;;;;;;21.05;5.45;;;;;;;27.29;61.98;100669.84;5051748;28;20561;-83
2022/08/25 03:13:44;;;;;;;19.13;5.53;;;;;;;27.27;61.95;100669.00;5051485;28;20028;-83
2022/08/25 03:16:10;;;;;;;24.98;5.38;;;;;;;27.28;62.16;100681.47;5051245;28;20497;-83
2022/08/25 03:18:36;;;;;;;20.67;5.63;;;;;;;27.22;62.09;100684.28;5051841;28;20528;-83
2022/08/25 03:21:02;;;;;;;22.45;5.18;;;;;;;27.03;62.08;100651.50;5051371;28;20487;-83
2022/08/25 03:23:28;;;;;;;19.08;5.50;;;;;;;27.27;62.26;100706.53;5050894;28;20017;-83
2022/08/25 03:28:40;;;;;;;25.75;5.38;;;;;;;27.21;62.12;100694.06;5051375;28;20032;-84
2022/08/25 03:31:06;;;;;;;28.90;5.65;;;;;;;27.12;61.95;100674.59;5050785;28;20116;-83
2022/08/25 03:33:32;;;;;;;20.63;5.22;;;;;;;27.24;61.65;100697.63;5050778;28;20024;-84
2022/08/25 03:35:58;;;;;;;25.10;5.60;;;;;;;27.19;61.49;100697.69;5051906;28;20102;-83
2022/08/25 03:38:25;;;;;;;23.02;5.43;;;;;;;27.19;61.52;100697.69;5051129;28;20051;-83
2022/08/25 03:40:51;;;;;;;24.77;5.43;;;;;;;27.28;61.56;100710.09;5050020;28;20029;-83
2022/08/25 03:43:17;;;;;;;16.42;4.75;;;;;;;27.26;61.77;100717.28;5050660;28;20047;-84
2022/08/25 03:45:44;;;;;;;21.42;5.10;;;;;;;27.21;61.80;100707.47;5051282;28;20025;-83
2022/08/25 03:48:10;;;;;;;23.50;5.38;;;;;;;27.21;61.45;100710.16;5050726;28;20032;-84
2022/08/25 03:50:36;;;;;;;28.08;5.25;;;;;;;27.22;61.25;100695.00;5048131;28;20068;-83
2022/08/25 03:53:02;;;;;;;20.30;5.20;;;;;;;27.23;61.18;100696.75;5048505;28;20056;-84
2022/08/25 03:55:28;;;;;;;28.52;5.47;;;;;;;27.24;61.27;100697.63;5047638;28;20474;-85
2022/08/25 03:57:54;;;;;;;25.70;5.47;;;;;;;27.13;61.15;100687.06;5051004;28;20121;-85
2022/08/25 04:00:21;;;;;;;26.10;5.43;;;;;;;26.81;61.46;100640.19;5051651;28;20112;-83
2022/08/25 04:02:47;;;;;;;25.58;4.75;;;;;;;27.08;61.02;100678.22;5030300;28;20417;-82
2022/08/25 04:05:13;;;;;;;24.25;5.13;;;;;;;27.14;61.20;100686.16;5051415;28;20505;-82
2022/08/25 04:07:39;;;;;;;24.17;5.38;;;;;;;27.19;61.06;100695.88;5049891;28;20028;-82
2022/08/25 04:10:08;;;;;;;28.02;5.65;;;;;;;27.17;61.01;100694.16;5051284;28;20032;-84
2022/08/25 04:12:35;;;;;;;27.70;5.57;;;;;;;27.09;60.72;100671.94;5049874;28;20029;-84
2022/08/25 04:15:01;;;;;;;24.55;5.03;;;;;;;26.94;61.05;100647.13;5050940;28;20040;-83
2022/08/25 04:17:26;;;;;;;28.10;5.50;;;;;;;27.15;60.79;100672.72;5041291;28;20508;-83
2022/08/25 04:19:52;;;;;;;29.23;5.40;;;;;;;27.14;60.52;100676.31;5047295;28;20021;-84
2022/08/25 04:22:18;;;;;;;24.05;5.25;;;;;;;27.11;60.83;100659.38;5016569;28;20029;-84
2022/08/25 04:24:44;;;;;;;23.83;5.50;;;;;;;27.17;61.10;100678.94;5044705;28;20509;-83
2022/08/25 04:27:09;;;;;;;23.52;5.15;;;;;;;27.14;60.92;100672.75;5051146;28;20025;-84
2022/08/25 04:29:36;;;;;;;27.95;5.20;;;;;;;27.14;61.00;100679.00;5052144;28;20116;-86
2022/08/25 04:32:02;;;;;;;22.63;4.80;;;;;;;27.14;61.25;100672.75;5054292;28;20108;-84
2022/08/25 04:34:28;;;;;;;23.02;5.22;;;;;;;27.17;61.31;100675.38;5013172;28;20502;-84
2022/08/25 04:36:54;;;;;;;24.80;5.18;;;;;;;27.15;61.32;100675.41;5043442;28;20040;-82
2022/08/25 04:39:20;;;;;;;24.15;4.78;;;;;;;27.10;61.41;100663.88;5049984;28;20096;-82
2022/08/25 04:41:49;;;;;;;18.58;4.70;;;;;;;27.11;61.56;100683.50;5049739;28;20029;-82
2022/08/25 04:44:18;;;;;;;22.10;5.40;;;;;;;27.10;61.53;100690.69;5032530;28;20053;-84
2022/08/25 04:46:44;;;;;;;19.95;4.90;;;;;;;27.11;61.26;100697.78;5040782;28;20032;-81
2022/08/25 04:49:10;;;;;;;24.83;5.20;;;;;;;27.03;61.27;100667.56;5030147;28;20033;-83
2022/08/25 04:51:39;;;;;;;20.65;5.00;;;;;;;27.17;61.17;100692.34;5031168;28;20051;-83
2022/08/25 04:54:08;;;;;;;22.35;5.28;;;;;;;26.85;61.15;100643.72;5032077;28;20108;-83
2022/08/25 04:56:40;;;;;;;23.23;4.47;;;;;;;26.88;61.23;100649.03;5030995;28;20021;-83
2022/08/25 04:59:10;;;;;;;23.05;4.93;;;;;;;26.99;61.71;100672.09;5039773;28;20037;-83
2022/08/25 05:01:36;;;;;;;21.15;4.53;;;;;;;26.98;61.33;100667.63;5046381;28;20036;-84
2022/08/25 05:04:04;;;;;;;23.90;5.07;;;;;;;27.13;61.52;100682.56;5043536;28;20480;-86
2022/08/25 05:06:30;;;;;;;21.65;5.03;;;;;;;26.79;61.25;100629.50;5030430;28;20636;-86
2022/08/25 05:08:57;;;;;;;15.65;4.35;;;;;;;26.87;61.87;100637.44;5045130;28;20478;-85
2022/08/25 05:11:23;;;;;;;20.75;4.80;;;;;;;26.88;61.00;100636.53;5046967;28;20402;-86
2022/08/25 05:13:50;;;;;;;21.17;5.07;;;;;;;26.76;61.30;100610.81;5026814;28;20406;-85
2022/08/25 05:16:17;;;;;;;29.27;5.03;;;;;;;27.10;60.86;100647.78;5048459;28;20037;-89
2022/08/25 05:18:44;;;;;;;26.17;4.65;;;;;;;26.91;61.44;100630.25;5048577;28;20040;-89
2022/08/25 05:21:12;;;;;;;23.92;5.35;;;;;;;26.36;61.47;100533.69;5030436;28;20059;-83
2022/08/25 05:23:39;;;;;;;22.48;5.00;;;;;;;26.77;62.24;100646.50;5052831;28;20151;-79
2022/08/25 05:26:11;;;;;;;23.98;5.25;;;;;;;26.54;62.40;100596.81;5047679;28;20478;-83
2022/08/25 05:28:41;;;;;;;24.02;5.13;;;;;;;26.78;62.51;100642.94;5051419;28;20049;-81
2022/08/25 05:31:09;;;;;;;22.83;5.00;;;;;;;26.76;62.08;100628.69;5047960;28;20104;-82
2022/08/25 05:33:36;;;;;;;24.10;5.03;;;;;;;26.84;61.97;100636.59;5050061;28;20120;-82
2022/08/25 05:39:13;;;;;;;29.23;5.88;;;;;;;26.81;61.79;100616.09;5008589;28;20204;-84
2022/08/25 05:41:43;;;;;;;32.08;6.00;;;;;;;26.48;61.76;100569.22;5008640;28;20095;-84
2022/08/25 05:44:09;;;;;;;24.02;5.43;;;;;;;26.75;61.68;100617.06;5046231;28;20037;-84
2022/08/25 05:46:35;;;;;;;22.45;5.45;;;;;;;26.93;61.79;100657.91;5051657;28;20457;-84
2022/08/25 05:49:01;;;;;;;26.60;5.22;;;;;;;26.97;61.45;100649.78;5046818;28;20378;-85
2022/08/25 05:51:32;;;;;;;23.83;5.60;;;;;;;26.90;61.54;100647.22;5038150;28;20021;-84
2022/08/25 05:53:57;;;;;;;24.70;5.43;;;;;;;26.96;61.64;100642.63;5050219;28;20025;-83
2022/08/25 05:56:23;;;;;;;27.88;5.75;;;;;;;26.70;61.50;100593.94;5051345;28;20025;-85
2022/08/25 05:58:49;;;;;;;25.15;5.63;;;;;;;26.97;61.64;100643.53;5033156;28;20049;-83
2022/08/25 06:04:07;;;;;;;22.33;5.20;;;;;;;26.62;62.71;100623.50;5047439;28;20036;-84
2022/08/25 06:06:33;;;;;;;23.40;5.75;;;;;;;26.39;62.64;100568.47;5045729;28;20032;-83
2022/08/25 06:08:58;;;;;;;21.80;5.35;;;;;;;26.44;62.26;100575.53;5053360;28;20029;-84
2022/08/25 06:11:24;;;;;;;27.13;6.03;;;;;;;26.57;62.63;100614.66;5054372;28;20021;-84
2022/08/25 06:13:49;;;;;;;16.13;5.00;;;;;;;26.38;63.10;100588.13;5052034;28;20040;-84
2022/08/25 06:16:15;;;;;;;;;;;;;;;26.69;63.38;100652.00;5053248;28;20494;-82
2022/08/25 06:18:40;;;;;;;30.77;5.90;;;;;;;26.54;62.92;100638.75;5051159;28;19908;-84
2022/08/25 06:21:11;;;;;;;29.33;5.68;;;;;;;26.80;62.73;100666.13;5045384;28;20405;-83
2022/08/25 06:23:37;;;;;;;30.80;5.60;;;;;;;26.94;62.51;100670.38;5052190;28;20104;-84
2022/08/25 06:26:03;;;;;;;27.10;5.60;;;;;;;26.86;62.64;100664.25;5048960;28;20083;-83
2022/08/25 06:28:29;;;;;;;31.52;6.07;;;;;;;26.84;62.79;100663.38;5042009;28;20032;-83
2022/08/25 06:30:59;;;;;;;32.05;6.30;;;;;;;26.90;62.94;100674.00;5052277;28;20031;-83
2022/08/25 06:33:25;;;;;;;26.33;5.53;;;;;;;26.96;62.99;100688.19;5049692;28;20506;-83
2022/08/25 06:35:53;;;;;;;20.70;5.20;;;;;;;26.96;62.99;100681.97;5051531;28;20032;-82
2022/08/25 06:38:20;;;;;;;28.42;5.78;;;;;;;26.92;62.71;100667.72;5042265;28;20033;-82
2022/08/25 06:40:47;;;;;;;26.10;5.60;;;;;;;26.93;63.26;100684.69;5053147;28;20049;-83
2022/08/25 06:43:14;;;;;;;29.40;6.60;;;;;;;26.91;63.32;100686.50;5051172;28;20052;-84
2022/08/25 06:45:41;;;;;;;21.23;5.82;;;;;;;26.78;63.19;100654.53;5052199;28;20025;-83
2022/08/25 06:48:06;;;;;;;21.17;5.50;;;;;;;26.89;62.95;100680.28;5052043;28;20035;-85
2022/08/25 06:50:32;;;;;;;15.40;5.38;;;;;;;26.88;63.61;100683.84;5052072;28;20112;-84
2022/08/25 06:52:57;;;;;;;;;;;;;;;26.88;63.60;100686.53;5054677;28;20021;-84
2022/08/25 06:55:23;;;;;;;21.02;5.88;;;;;;;26.72;63.79;100664.47;5052611;28;20003;-83
2022/08/25 06:57:52;;;;;;;24.13;6.18;;;;;;;26.85;63.51;100673.19;5050087;28;20069;-82
2022/08/25 07:00:18;;;;;;;25.38;5.65;;;;;;;27.01;63.12;100691.72;5029516;28;20021;-84
2022/08/25 07:02:44;;;;;;;19.85;5.53;;;;;;;26.96;63.22;100669.44;5043771;28;20037;-84
2022/08/25 07:05:13;;;;;;;18.27;5.22;;;;;;;27.05;63.44;100688.97;5043349;28;20517;-84
2022/08/25 07:07:39;;;;;;;34.38;6.43;;;;;;;27.04;63.34;100682.72;5030184;28;20025;-82
2022/08/25 07:10:05;;;;;;;18.23;5.28;;;;;;;27.07;63.02;100700.56;5017585;28;20605;-84
2022/08/25 07:12:31;;;;;;;16.88;5.07;;;;;;;26.86;63.13;100669.59;5050768;28;20020;-84
2022/08/25 07:14:56;;;;;;;23.77;5.40;;;;;;;27.04;63.13;100696.13;5032559;28;20112;-92
2022/08/25 07:17:22;;;;;;;21.13;5.40;;;;;;;27.05;62.94;100705.03;5054625;28;20540;-85
2022/08/25 07:19:48;;;;;;;20.83;5.60;;;;;;;26.80;63.09;100660.75;5035667;28;20036;-85
2022/08/25 07:22:14;;;;;;;16.10;5.30;;;;;;;27.02;63.58;100703.31;5045356;28;20029;-84
2022/08/25 07:24:40;;;;;;;23.50;5.53;;;;;;;27.06;63.39;100702.34;5034101;28;20032;-82
2022/08/25 07:27:06;;;;;;;17.10;4.85;;;;;;;26.88;63.46;100681.19;5039360;28;20036;-81
2022/08/25 07:29:35;;;;;;;19.48;4.93;;;;;;;26.96;63.38;100687.31;5032635;28;20639;-81
2022/08/25 07:32:02;;;;;;;17.17;5.10;;;;;;;26.90;63.54;100688.31;5049473;28;20482;-83
2022/08/25 07:37:12;;;;;;;15.80;5.60;;;;;;;26.85;64.22;100694.63;5038475;28;20067;-84
2022/08/25 07:39:37;;;;;;;18.20;4.90;;;;;;;26.94;63.80;100703.41;5033215;28;20123;-83
2022/08/25 07:42:04;;;;;;;19.10;5.40;;;;;;;26.91;64.00;100697.22;5047921;28;20029;-83
2022/08/25 07:44:31;;;;;;;18.95;4.68;;;;;;;26.94;63.88;100711.44;5034172;28;20103;-84
2022/08/25 07:46:57;;;;;;;21.30;5.05;;;;;;;27.05;63.67;100702.38;5052463;28;20032;-82
2022/08/25 07:49:24;;;;;;;21.50;5.50;;;;;;;26.95;63.78;100696.28;5053283;28;20043;-82
2022/08/25 07:51:51;;;;;;;17.52;5.30;;;;;;;26.97;63.82;100694.47;5051123;28;20025;-82
2022/08/25 07:54:17;;;;;;;17.65;5.18;;;;;;;27.00;63.44;100694.41;5052608;28;20060;-82
2022/08/25 07:56:42;;;;;;;16.38;5.05;;;;;;;26.94;63.92;100690.00;5051828;28;20056;-82
2022/08/25 07:59:09;;;;;;;21.00;5.43;;;;;;;26.97;63.65;100683.75;5051237;28;20041;-83
2022/08/25 08:01:35;;;;;;;26.17;5.82;;;;;;;26.88;64.41;100671.38;5041794;28;20564;-81
2022/08/25 08:04:01;;;;;;;18.50;5.38;;;;;;;26.82;64.18;100660.75;5051999;28;20108;-84
2022/08/25 08:06:26;;;;;;;16.55;5.10;;;;;;;26.95;64.12;100678.41;5044701;28;20114;-83
2022/08/25 08:08:53;;;;;;;18.17;4.90;;;;;;;26.86;64.45;100657.09;5047314;28;20083;-83
2022/08/25 08:11:27;;;;;;;22.65;5.78;;;;;;;26.92;64.70;100665.03;5030620;28;20031;-84
2022/08/25 08:13:55;;;;;;;19.83;5.75;;;;;;;26.80;65.04;100646.47;5049983;28;20167;-84
2022/08/25 08:16:24;;;;;;;18.38;5.65;;;;;;;26.90;64.67;100668.66;5051597;28;20465;-83
2022/08/25 08:18:50;;;;;;;25.23;6.00;;;;;;;26.74;64.77;100651.94;5009452;28;20404;-83
2022/08/25 08:21:21;;;;;;;22.85;6.18;;;;;;;26.88;65.67;100665.09;5051457;28;20036;-83
2022/08/25 08:23:48;;;;;;;22.90;6.53;;;;;;;26.87;64.99;100669.59;5015336;28;20026;-83
2022/08/25 08:26:14;;;;;;;26.45;6.57;;;;;;;26.84;65.64;100655.34;5026451;28;20029;-82
2022/08/25 08:28:39;;;;;;;23.50;6.18;;;;;;;26.84;65.40;100652.66;5050914;28;20141;-83
2022/08/25 08:31:05;;;;;;;20.08;5.32;;;;;;;26.87;64.23;100661.53;5031942;28;20502;-81
2022/08/25 08:33:34;;;;;;;25.15;5.88;;;;;;;26.90;64.89;100656.16;5051261;28;20102;-82
2022/08/25 08:36:06;;;;;;;25.60;6.15;;;;;;;26.93;64.76;100664.13;5050442;28;20142;-81
2022/08/25 08:38:34;;;;;;;23.23;6.65;;;;;;;26.81;65.74;100658.94;5046294;28;20414;-80
2022/08/25 08:44:16;;;;;;;17.30;5.45;;;;;;;26.96;64.19;100664.06;5050506;28;20130;-82
2022/08/25 08:46:58;;;;;;;19.73;5.45;;;;;;;26.93;63.38;100652.53;5033569;28;20036;-83
2022/08/25 08:49:43;;;;;;;14.10;5.13;;;;;;;26.81;63.65;100630.34;5022455;28;20484;-83
2022/08/25 08:52:09;;;;;;;17.23;5.47;;;;;;;26.93;63.93;100647.19;5050868;28;20021;-82
2022/08/25 08:54:37;;;;;;;15.75;5.55;;;;;;;26.92;64.16;100646.28;5034298;28;20025;-84
2022/08/25 08:57:08;;;;;;;16.70;5.25;;;;;;;26.92;64.13;100632.88;5018101;28;20396;-82
2022/08/25 08:59:56;;;;;;;17.45;5.53;;;;;;;26.95;63.65;100640.00;5052282;28;20043;-82
2022/08/25 09:02:41;;;;;;;19.20;5.78;;;;;;;26.85;63.63;100615.13;5034067;28;20049;-83
2022/08/25 09:05:10;;;;;;;17.05;5.60;;;;;;;26.88;63.73;100611.50;5020494;28;20401;-84
2022/08/25 09:07:42;;;;;;;18.98;5.55;;;;;;;26.97;63.54;100628.34;5053676;28;20032;-83
2022/08/25 09:10:09;;;;;;;15.68;4.70;;;;;;;27.02;63.16;100622.91;5029425;28;20499;-82
2022/08/25 09:13:10;;;;;;;11.82;5.10;;;;;;;26.86;63.27;100591.91;5028129;28;20017;-84
2022/08/25 09:18:42;;;;;;;14.25;5.30;;;;;;;26.92;63.05;100590.00;5039537;28;20035;-83
2022/08/25 09:21:26;;;;;;;16.13;5.40;;;;;;;27.01;63.38;100602.38;5037280;28;20071;-82
2022/08/25 09:24:04;;;;;;;15.57;5.68;;;;;;;27.01;63.33;100602.38;5038022;28;20422;-82
2022/08/25 09:26:42;;;;;;;12.85;5.30;;;;;;;26.99;63.23;100604.22;5045705;28;20111;-82
2022/08/25 09:29:21;;;;;;;12.23;4.80;;;;;;;26.97;62.96;100597.97;5049667;28;20128;-82
2022/08/25 09:31:47;;;;;;;12.23;4.88;;;;;;;27.05;62.91;100613.91;5030034;28;20040;-82
2022/08/25 09:34:20;;;;;;;12.68;5.07;;;;;;;27.05;63.22;100614.81;5051326;28;20040;-82
2022/08/25 09:36:47;;;;;;;12.45;4.90;;;;;;;27.05;62.83;100611.25;5032874;28;20025;-81
2022/08/25 09:39:13;;;;;;;13.38;5.32;;;;;;;27.06;63.08;100616.59;5029129;28;20040;-82
2022/08/25 09:41:46;;;;;;;13.15;4.70;;;;;;;26.92;62.79;100587.31;5051785;28;20029;-83
2022/08/25 09:44:43;;;;;;;13.20;4.95;;;;;;;27.07;63.04;100617.47;5052990;28;20413;-83
2022/08/25 09:47:22;;;;;;;9.98;4.95;;;;;;;27.07;62.78;100618.34;5048896;28;20037;-83
2022/08/25 09:50:01;;;;;;;10.23;4.85;;;;;;;27.09;62.91;100615.63;5024001;28;20568;-82
2022/08/25 09:52:27;;;;;;;15.48;5.18;;;;;;;27.10;62.76;100604.91;5029376;28;20086;-84
2022/08/25 09:54:54;;;;;;;11.00;4.80;;;;;;;27.05;62.89;100598.75;5033285;28;20033;-84
2022/08/25 09:57:42;;;;;;;9.55;4.90;;;;;;;26.98;63.11;100589.91;5031880;28;20028;-84
2022/08/25 10:00:29;;;;;;;10.73;4.68;;;;;;;27.07;62.90;100596.91;5055743;28;20087;-83
2022/08/25 10:03:11;;;;;;;9.48;4.70;;;;;;;27.10;62.92;100599.53;5055715;28;20053;-84
2022/08/25 10:06:07;;;;;;;13.30;5.20;;;;;;;27.02;63.08;100578.22;5055954;28;20111;-83
2022/08/25 10:08:36;;;;;;;15.38;4.90;;;;;;;27.06;62.90;100581.75;5028301;28;20145;-83
2022/08/25 10:11:07;;;;;;;11.80;5.30;;;;;;;27.14;62.48;100598.56;5029948;28;20409;-83
2022/08/25 10:13:46;;;;;;;13.13;4.90;;;;;;;27.12;62.73;100592.34;5030105;28;20031;-84
2022/08/25 10:16:27;;;;;;;13.35;5.13;;;;;;;27.15;62.47;100596.78;5043107;28;20116;-83
2022/08/25 10:19:11;;;;;;;13.63;5.20;;;;;;;27.00;62.66;100580.03;5050664;28;20033;-83
2022/08/25 10:21:42;;;;;;;11.48;5.32;;;;;;;27.13;62.64;100594.09;5050828;28;20032;-84
2022/08/25 10:24:12;;;;;;;13.75;5.40;;;;;;;27.13;62.61;100594.09;5011700;28;20028;-84
2022/08/25 10:26:47;;;;;;;9.13;4.40;;;;;;;26.98;62.73;100557.72;5019803;28;20039;-81
2022/08/25 10:29:28;;;;;;;11.65;4.82;;;;;;;27.18;62.69;100589.56;5051792;28;20029;-80
2022/08/25 10:32:11;;;;;;;9.23;4.95;;;;;;;27.13;62.63;100588.75;5053808;28;20103;-82
2022/08/25 10:34:57;;;;;;;9.98;5.00;;;;;;;27.10;62.44;100587.94;5035427;28;20028;-83
2022/08/25 10:37:27;;;;;;;12.30;5.30;;;;;;;27.18;62.46;100612.81;5015079;28;20041;-82
2022/08/25 10:40:24;;;;;;;10.43;5.00;;;;;;;27.16;62.89;100622.69;5028105;28;20041;-82
2022/08/25 10:42:55;;;;;;;16.77;5.35;;;;;;;27.21;63.01;100624.34;5008301;28;20390;-81
2022/08/25 10:45:44;;;;;;;16.70;5.30;;;;;;;27.09;63.77;100621.88;5034925;28;20024;-82
2022/08/25 10:48:31;;;;;;;14.38;5.80;;;;;;;27.11;64.23;100633.47;5035772;28;20057;-82
2022/08/25 10:51:20;;;;;;;12.23;5.00;;;;;;;27.08;63.91;100625.47;5050878;28;20485;-82
2022/08/25 10:53:56;;;;;;;14.82;5.78;;;;;;;27.09;64.37;100623.69;5055364;28;20033;-82
2022/08/25 10:56:42;;;;;;;13.90;5.63;;;;;;;27.02;64.52;100620.22;5038423;28;20083;-83
2022/08/25 10:59:23;;;;;;;13.48;5.35;;;;;;;27.07;64.52;100626.38;5049036;28;20068;-81
2022/08/25 11:02:01;;;;;;;12.82;5.53;;;;;;;27.01;65.30;100623.81;5049159;28;20493;-82
2022/08/25 11:04:50;;;;;;;11.85;5.32;;;;;;;27.10;64.30;100628.16;5051400;28;20029;-82
2022/08/25 11:07:43;;;;;;;9.50;4.95;;;;;;;27.10;64.28;100623.66;5050053;28;20028;-83
2022/08/25 11:10:14;;;;;;;11.98;5.15;;;;;;;27.09;64.44;100623.69;5045938;28;20072;-82
2022/08/25 11:12:46;;;;;;;9.85;5.65;;;;;;;27.08;64.75;100622.81;5044699;28;20084;-82
2022/08/25 11:15:24;;;;;;;11.35;5.03;;;;;;;27.17;64.24;100627.13;5046794;28;20086;-82
2022/08/25 11:18:08;;;;;;;14.15;5.82;;;;;;;27.11;64.17;100617.38;5042493;28;20100;-82
2022/08/25 11:21:01;;;;;;;11.65;5.78;;;;;;;27.17;65.50;100625.31;5031335;28;20045;-81
2022/08/25 11:23:40;;;;;;;13.35;5.45;;;;;;;27.14;65.03;100621.84;5048366;28;20017;-84
2022/08/25 11:26:14;;;;;;;11.63;5.47;;;;;;;27.13;64.64;100622.72;5051065;28;20028;-83
2022/08/25 11:29:16;;;;;;;12.60;5.60;;;;;;;27.05;66.04;100617.50;5050278;28;20021;-82
2022/08/25 11:31:48;;;;;;;10.23;5.22;;;;;;;27.01;65.17;100613.97;4989569;28;20034;-83
2022/08/25 11:34:14;;;;;;;11.23;5.40;;;;;;;27.07;65.32;100609.41;5042300;28;20025;-81
2022/08/25 11:36:54;;;;;;;19.38;6.00;;;;;;;27.02;65.32;100591.63;5052707;28;20048;-82
2022/08/25 11:39:52;;;;;;;10.80;5.22;;;;;;;27.10;65.23;100607.59;5051005;28;20017;-81
2022/08/25 11:42:36;;;;;;;12.70;5.30;;;;;;;27.10;65.04;100607.59;5042082;28;20029;-82
2022/08/25 11:45:08;;;;;;;14.90;6.28;;;;;;;27.05;65.30;100614.81;5052788;28;20096;-83
2022/08/25 11:48:00;;;;;;;19.33;5.88;;;;;;;27.05;66.66;100605.88;5052169;28;20052;-83